Port Hueneme, California
Current Conditions -  °F | °C
As of 4:51 AM on Wednesday 26 Nov 2014 (Local Time) from KOXR Reporting Station
Clear Clear  
Wind Chill: 15°   Ceiling: Unl
Heat Index: 15°   Visibility: 10mi
Dew Point: -7°   Wind: 7mph
Humidity: 22%   Direction: 50°NE
Pressure: 30.2"   Gusts: NA
Location:  34.15°N, 119.19°W
Report Text: KOXR 261251Z AUTO 05006KT 10SM CLR 15/M07 A3020 RMK AO2 SLP227 T01501067
Loading
Personal Weather Stations






























Interactive Weather Map New forecast layout! Learn more

10-Day Weather Forecast

Advertisements
Track Severe Weather on mobile